Terminal Aerodrome Forecast
Issued by NWS

Home | Current Version | Previous Version | Text Only | Print | Product List | Glossary On
Versions: 1 2 3 4 5 6 7 8 9 10 11 12 13 14 15 16 17
484
FTUS43 KGRB 281726
TAFAUW
TAF
KAUW 281726Z 2818/2918 04011G19KT P6SM VCSH BKN035
     FM282000 04010KT P6SM BKN040
     FM282300 03007KT P6SM BKN040
     FM290200 02006KT P6SM SCT030
     FM290700 36004KT 5SM BR SCT025
     FM291300 02007KT P6SM SCT200=

USA.gov is the U.S. government's official web portal to all federal, state and local government web resources and services.